Time;durP1;ratioP1;P1;durP2;ratioP2;P2;SDS_P1;SDS_P2;PMS_P1;PMS_P2;Temp;Humidity;BMP_temperature;BMP_pressure;BME280_temperature;BME280_humidity;BME280_pressure;Samples;Min_cycle;Max_cycle;Signal;HPM_P1;HPM_P2
2022/07/04 00:00:56;;;;;;;7.25;5.22;;;14.60;99.90;;;;;;5030559;28;20033;-63
2022/07/04 00:03:21;;;;;;;5.65;5.05;;;14.60;99.90;;;;;;5022668;28;20344;-63
2022/07/04 00:05:47;;;;;;;6.68;5.40;;;14.60;99.90;;;;;;5023745;28;20048;-63
2022/07/04 00:08:13;;;;;;;9.25;5.80;;;14.60;99.90;;;;;;5033728;28;20036;-63
2022/07/04 00:10:39;;;;;;;8.77;6.03;;;14.60;99.90;;;;;;5027772;28;20045;-63
2022/07/04 00:13:05;;;;;;;7.97;5.90;;;14.50;99.90;;;;;;5016845;28;20373;-65
2022/07/04 00:15:31;;;;;;;12.32;6.10;;;14.50;99.90;;;;;;5037299;28;20077;-63
2022/07/04 00:17:56;;;;;;;7.18;6.13;;;14.50;99.90;;;;;;5030125;28;20076;-64
2022/07/04 00:20:22;;;;;;;7.40;5.32;;;14.50;99.90;;;;;;5018924;28;20149;-62
2022/07/04 00:22:48;;;;;;;5.55;3.83;;;14.40;99.90;;;;;;5011568;28;20041;-63
2022/07/04 00:25:13;;;;;;;5.10;3.65;;;14.40;99.90;;;;;;5026961;28;20072;-63
2022/07/04 00:27:39;;;;;;;6.05;3.83;;;14.40;99.90;;;;;;5035678;28;20081;-63
2022/07/04 00:30:05;;;;;;;5.07;3.97;;;14.40;99.90;;;;;;5023935;28;20072;-63
2022/07/04 00:32:31;;;;;;;5.45;4.05;;;14.30;99.90;;;;;;5019139;28;20063;-62
2022/07/04 00:34:56;;;;;;;7.30;4.60;;;14.30;99.90;;;;;;5017966;28;20034;-62
2022/07/04 00:37:22;;;;;;;8.30;5.10;;;14.30;99.90;;;;;;5018647;28;20037;-63
2022/07/04 00:39:48;;;;;;;7.68;5.38;;;14.30;99.90;;;;;;5028341;28;20025;-63
2022/07/04 00:42:14;;;;;;;5.20;4.53;;;14.30;99.90;;;;;;5025789;28;20492;-63
2022/07/04 00:44:39;;;;;;;7.45;4.40;;;14.30;99.90;;;;;;5018879;28;20046;-64
2022/07/04 00:47:06;;;;;;;6.95;3.60;;;14.20;99.90;;;;;;5025452;28;20053;-66
2022/07/04 00:49:32;;;;;;;6.72;4.32;;;14.20;99.90;;;;;;5025351;28;20037;-63
2022/07/04 00:51:59;;;;;;;6.78;4.60;;;14.10;99.90;;;;;;5025656;28;20151;-66
2022/07/04 00:54:28;;;;;;;5.47;4.32;;;14.10;99.90;;;;;;5012230;28;20037;-63
2022/07/04 00:56:54;;;;;;;4.68;3.25;;;14.10;99.90;;;;;;5023377;28;20519;-64
2022/07/04 00:59:20;;;;;;;5.53;3.30;;;14.10;99.90;;;;;;5027668;28;20113;-63
2022/07/04 01:01:46;;;;;;;5.40;3.53;;;14.00;99.90;;;;;;5021727;28;20445;-64
2022/07/04 01:04:11;;;;;;;5.82;3.35;;;14.00;99.90;;;;;;5019258;28;20152;-63
2022/07/04 01:06:37;;;;;;;4.70;3.75;;;14.00;99.90;;;;;;5029118;28;20094;-63
2022/07/04 01:09:04;;;;;;;6.93;4.65;;;13.90;99.90;;;;;;5027803;28;20052;-63
2022/07/04 01:11:30;;;;;;;7.88;6.00;;;13.90;99.90;;;;;;5024669;28;20049;-65
2022/07/04 01:13:57;;;;;;;7.38;5.85;;;13.90;99.90;;;;;;5023637;28;20046;-65
2022/07/04 01:16:25;;;;;;;10.52;6.55;;;14.00;99.90;;;;;;5014684;28;20543;-63
2022/07/04 01:18:51;;;;;;;8.38;6.45;;;14.00;99.90;;;;;;5023532;28;20045;-64
2022/07/04 01:21:18;;;;;;;9.13;6.90;;;14.00;99.90;;;;;;5025431;28;20037;-63
2022/07/04 01:23:44;;;;;;;8.43;6.53;;;14.00;99.90;;;;;;5037514;28;20065;-63
2022/07/04 01:26:11;;;;;;;8.00;6.28;;;14.00;99.90;;;;;;5031539;28;20511;-62
2022/07/04 01:28:36;;;;;;;7.70;6.72;;;14.00;99.90;;;;;;5021167;28;20037;-63
2022/07/04 01:31:02;;;;;;;9.75;6.85;;;14.00;99.90;;;;;;5024463;28;20037;-63
2022/07/04 01:33:28;;;;;;;8.35;6.50;;;14.00;99.90;;;;;;5025340;28;20041;-62
2022/07/04 01:35:54;;;;;;;7.30;6.07;;;13.90;99.90;;;;;;5027452;28;20041;-63
2022/07/04 01:38:19;;;;;;;8.60;6.55;;;13.90;99.90;;;;;;5030812;28;20037;-62
2022/07/04 01:40:45;;;;;;;7.25;6.05;;;13.90;99.90;;;;;;5025845;28;20555;-63
2022/07/04 01:43:11;;;;;;;8.15;6.35;;;13.90;99.90;;;;;;5025481;28;20043;-64
2022/07/04 01:45:39;;;;;;;8.18;6.22;;;13.90;99.90;;;;;;5029871;28;20257;-62
2022/07/04 01:48:11;;;;;;;8.68;6.38;;;13.90;99.90;;;;;;5023174;28;20489;-63
2022/07/04 01:50:37;;;;;;;8.07;5.72;;;13.90;99.90;;;;;;5022319;28;20117;-65
2022/07/04 01:53:03;;;;;;;10.50;6.25;;;13.90;99.90;;;;;;5025063;28;20069;-63
2022/07/04 01:55:29;;;;;;;7.88;6.38;;;13.80;99.90;;;;;;5023899;28;20080;-63
2022/07/04 01:57:55;;;;;;;8.63;6.28;;;13.80;99.90;;;;;;5026259;28;20041;-63
2022/07/04 02:03:06;;;;;;;10.07;6.53;;;13.80;99.90;;;;;;5025840;28;20480;-63
2022/07/04 02:05:33;;;;;;;12.77;7.55;;;13.80;99.90;;;;;;5015058;28;20128;-64
2022/07/04 02:07:58;;;;;;;8.70;6.32;;;13.80;99.90;;;;;;5024519;28;20399;-65
2022/07/04 02:10:24;;;;;;;8.63;6.30;;;13.80;99.90;;;;;;5032044;28;20042;-63
2022/07/04 02:13:02;;;;;;;9.60;6.35;;;13.80;99.90;;;;;;5032062;28;20041;-64
2022/07/04 02:15:38;;;;;;;9.57;6.43;;;13.70;99.90;;;;;;5024737;28;20572;-63
2022/07/04 02:18:07;;;;;;;11.65;6.70;;;13.80;99.90;;;;;;5020816;28;20045;-63
2022/07/04 02:20:33;;;;;;;9.13;6.70;;;13.80;99.90;;;;;;5026099;28;20044;-66
2022/07/04 02:22:59;;;;;;;10.23;7.18;;;13.80;99.90;;;;;;5032704;28;20045;-64
2022/07/04 02:25:25;;;;;;;10.35;6.68;;;13.70;99.90;;;;;;5036131;28;20248;-62
2022/07/04 02:27:51;;;;;;;8.23;6.53;;;13.70;99.90;;;;;;5022718;28;20468;-63
2022/07/04 02:30:17;;;;;;;11.40;6.85;;;13.70;99.90;;;;;;5034990;28;20037;-63
2022/07/04 02:32:43;;;;;;;10.02;6.55;;;13.70;99.90;;;;;;5019861;28;20126;-63
2022/07/04 02:35:09;;;;;;;8.27;5.78;;;13.70;99.90;;;;;;5016388;28;20125;-64
2022/07/04 02:37:35;;;;;;;7.32;6.35;;;13.70;99.90;;;;;;5020328;28;20132;-66
2022/07/04 02:40:02;;;;;;;10.93;6.18;;;13.70;99.90;;;;;;5032332;28;20523;-63
2022/07/04 02:42:31;;;;;;;11.38;6.68;;;13.70;99.90;;;;;;5023148;28;20037;-63
2022/07/04 02:44:58;;;;;;;9.85;6.95;;;13.70;99.90;;;;;;5032642;28;20076;-63
2022/07/04 02:47:23;;;;;;;8.13;6.15;;;13.70;99.90;;;;;;5028992;28;20026;-63
2022/07/04 02:49:49;;;;;;;9.65;6.03;;;13.60;99.90;;;;;;5014687;28;20389;-63
2022/07/04 02:52:15;;;;;;;7.55;5.80;;;13.60;99.90;;;;;;5028789;28;20504;-64
2022/07/04 02:54:41;;;;;;;7.20;6.00;;;13.60;99.90;;;;;;5018226;28;20037;-63
2022/07/04 02:57:08;;;;;;;8.15;6.13;;;13.60;99.90;;;;;;5017744;28;20046;-63
2022/07/04 02:59:33;;;;;;;10.35;6.68;;;13.60;99.90;;;;;;5030317;28;20038;-63
2022/07/04 03:01:59;;;;;;;8.23;6.38;;;13.60;99.90;;;;;;5018824;28;20396;-66
2022/07/04 03:04:25;;;;;;;10.07;6.93;;;13.60;99.90;;;;;;5030515;28;20053;-63
2022/07/04 03:06:50;;;;;;;9.68;6.85;;;13.60;99.90;;;;;;5030764;28;20116;-63
2022/07/04 03:09:16;;;;;;;9.98;7.00;;;13.60;99.90;;;;;;5021645;28;20045;-63
2022/07/04 03:11:42;;;;;;;9.13;6.60;;;13.50;99.90;;;;;;5030631;28;20480;-63
2022/07/04 03:14:08;;;;;;;11.55;6.85;;;13.60;99.90;;;;;;5016861;28;20030;-62
2022/07/04 03:16:33;;;;;;;10.32;7.18;;;13.50;99.90;;;;;;5028579;28;20091;-62
2022/07/04 03:18:59;;;;;;;11.95;7.35;;;13.60;99.90;;;;;;5019625;28;20101;-64
2022/07/04 03:21:25;;;;;;;11.48;7.50;;;13.50;99.90;;;;;;5025433;28;20520;-64
2022/07/04 03:23:59;;;;;;;12.50;8.13;;;13.60;99.90;;;;;;5030525;28;20559;-62
2022/07/04 03:26:31;;;;;;;10.93;7.95;;;13.60;99.90;;;;;;5017597;28;20046;-62
2022/07/04 03:28:58;;;;;;;9.90;7.60;;;13.60;99.90;;;;;;5031127;28;20040;-63
2022/07/04 03:31:28;;;;;;;10.52;7.30;;;13.60;99.90;;;;;;5024281;28;20045;-65
2022/07/04 03:33:54;;;;;;;11.13;7.70;;;13.60;99.90;;;;;;5026035;28;20073;-64
2022/07/04 03:36:20;;;;;;;9.27;7.20;;;13.60;99.90;;;;;;5023057;28;20204;-62
2022/07/04 03:38:46;;;;;;;10.88;7.38;;;13.60;99.90;;;;;;5020983;28;20037;-64
2022/07/04 03:41:12;;;;;;;11.68;7.00;;;13.60;99.90;;;;;;5028016;28;20087;-63
2022/07/04 03:43:38;;;;;;;12.20;7.63;;;13.60;99.90;;;;;;5028622;28;20029;-62
2022/07/04 03:46:04;;;;;;;13.73;7.35;;;13.60;99.90;;;;;;5026199;28;20022;-63
2022/07/04 03:48:29;;;;;;;12.40;7.13;;;13.60;99.90;;;;;;5022242;28;20132;-63
2022/07/04 03:50:55;;;;;;;12.77;7.95;;;13.60;99.90;;;;;;5026752;28;20407;-63
2022/07/04 03:53:21;;;;;;;11.00;7.07;;;13.60;99.90;;;;;;5027760;28;20073;-63
2022/07/04 03:55:47;;;;;;;11.93;8.20;;;13.60;99.90;;;;;;5023599;28;20088;-63
2022/07/04 03:58:13;;;;;;;9.82;7.68;;;13.60;99.90;;;;;;5029836;28;20037;-63
2022/07/04 04:00:38;;;;;;;10.98;7.45;;;13.60;99.90;;;;;;5025072;28;20435;-65
2022/07/04 04:05:26;;;;;;;11.63;7.80;;;13.60;99.90;;;;;;5027398;28;20037;-62
2022/07/04 04:05:50;;;;;;;11.23;7.30;;;13.60;99.90;;;;;;5012772;28;20120;-62
2022/07/04 04:08:15;;;;;;;10.15;7.05;;;13.60;99.90;;;;;;5027564;28;20117;-62
2022/07/04 04:10:42;;;;;;;9.90;7.38;;;13.70;99.90;;;;;;5029885;28;20092;-63
2022/07/04 04:13:08;;;;;;;10.25;7.35;;;13.70;99.90;;;;;;5027997;28;20484;-63
2022/07/04 04:15:33;;;;;;;12.90;7.43;;;13.70;99.90;;;;;;5033563;28;20033;-63
2022/07/04 04:17:59;;;;;;;12.90;8.25;;;13.70;99.90;;;;;;5018415;28;20097;-63
2022/07/04 04:20:25;;;;;;;10.05;7.63;;;13.70;99.90;;;;;;5031734;28;20047;-62
2022/07/04 04:22:50;;;;;;;11.18;7.35;;;13.70;99.90;;;;;;5022755;28;20096;-63
2022/07/04 04:25:17;;;;;;;10.27;6.93;;;13.80;99.90;;;;;;5026718;28;20542;-63
2022/07/04 04:27:42;;;;;;;10.48;7.25;;;13.80;99.90;;;;;;5023194;28;20374;-62
2022/07/04 04:30:08;;;;;;;10.50;7.50;;;13.80;99.90;;;;;;5028422;28;20128;-62
2022/07/04 04:32:34;;;;;;;12.55;7.30;;;13.80;99.90;;;;;;5029134;28;20049;-62
2022/07/04 04:35:00;;;;;;;11.43;7.10;;;13.80;99.90;;;;;;5036776;28;20036;-64
2022/07/04 04:37:26;;;;;;;12.88;7.63;;;13.80;99.90;;;;;;5033778;28;20506;-64
2022/07/04 04:39:51;;;;;;;10.35;7.32;;;13.90;99.90;;;;;;5018070;28;20037;-62
2022/07/04 04:42:17;;;;;;;9.90;7.47;;;13.90;99.90;;;;;;5022064;28;20444;-62
2022/07/04 04:44:43;;;;;;;11.57;7.40;;;13.90;99.90;;;;;;5020588;28;20767;-62
2022/07/04 04:47:08;;;;;;;13.60;8.68;;;13.90;99.90;;;;;;5022166;28;20033;-63
2022/07/04 04:49:34;;;;;;;10.82;7.60;;;14.00;99.90;;;;;;5026210;28;20489;-63
2022/07/04 04:52:00;;;;;;;17.05;8.00;;;14.00;99.90;;;;;;5019936;28;20036;-64
2022/07/04 04:54:25;;;;;;;12.85;7.50;;;14.00;99.90;;;;;;5023328;28;20564;-63
2022/07/04 04:56:51;;;;;;;13.63;7.30;;;14.00;99.90;;;;;;5009357;28;20041;-63
2022/07/04 04:59:16;;;;;;;12.65;7.28;;;14.00;99.90;;;;;;5026280;28;20179;-63
2022/07/04 05:01:42;;;;;;;10.48;6.72;;;14.10;99.90;;;;;;5019937;28;20048;-65
2022/07/04 05:04:08;;;;;;;16.10;7.07;;;14.00;99.90;;;;;;5026791;28;20037;-63
2022/07/04 05:06:33;;;;;;;10.82;6.85;;;14.10;99.90;;;;;;5025784;28;20488;-63
2022/07/04 05:08:59;;;;;;;14.70;7.32;;;14.10;99.90;;;;;;5026220;28;20595;-66
2022/07/04 05:11:25;;;;;;;12.52;7.60;;;14.10;99.90;;;;;;5038996;28;20037;-63
2022/07/04 05:13:51;;;;;;;11.93;7.57;;;14.10;99.90;;;;;;5033595;28;20034;-64
2022/07/04 05:16:16;;;;;;;13.70;7.60;;;14.10;99.90;;;;;;5027533;28;20456;-64
2022/07/04 05:18:42;;;;;;;12.25;7.32;;;14.10;99.90;;;;;;5036283;28;20034;-63
2022/07/04 05:21:07;;;;;;;12.85;7.68;;;14.10;99.90;;;;;;5031507;28;20033;-63
2022/07/04 05:23:33;;;;;;;15.77;7.07;;;14.10;99.90;;;;;;5026614;28;20092;-64
2022/07/04 05:25:59;;;;;;;10.85;7.38;;;14.20;99.90;;;;;;5031799;28;20041;-65
2022/07/04 05:28:24;;;;;;;9.73;7.38;;;14.20;99.90;;;;;;5028697;28;20507;-64
2022/07/04 05:30:50;;;;;;;11.82;7.10;;;14.20;99.90;;;;;;5035910;28;20038;-64
2022/07/04 05:33:16;;;;;;;12.98;7.45;;;14.20;99.90;;;;;;5027417;28;20041;-63
2022/07/04 05:35:41;;;;;;;11.25;7.22;;;14.30;99.90;;;;;;5020549;28;20041;-64
2022/07/04 05:38:07;;;;;;;11.25;7.65;;;14.20;99.90;;;;;;5035468;28;20407;-64
2022/07/04 05:40:32;;;;;;;8.98;7.47;;;14.30;99.90;;;;;;5026562;28;20072;-65
2022/07/04 05:42:58;;;;;;;16.45;7.72;;;14.30;99.90;;;;;;5034203;28;20033;-68
2022/07/04 05:45:24;;;;;;;12.23;7.50;;;14.40;99.90;;;;;;5021788;28;20099;-65
2022/07/04 05:47:49;;;;;;;14.48;8.05;;;14.40;99.90;;;;;;5014396;28;20056;-68
2022/07/04 05:50:15;;;;;;;13.07;7.38;;;14.40;99.90;;;;;;5037305;28;20079;-65
2022/07/04 05:52:40;;;;;;;14.13;8.38;;;14.40;99.90;;;;;;5026051;28;20052;-64
2022/07/04 05:55:07;;;;;;;12.02;8.27;;;14.40;99.90;;;;;;5032942;28;20084;-65
2022/07/04 05:57:33;;;;;;;12.40;7.70;;;14.50;99.90;;;;;;5026988;28;20393;-65
2022/07/04 05:59:58;;;;;;;12.60;8.40;;;14.50;99.90;;;;;;5030587;28;20496;-66
2022/07/04 06:02:24;;;;;;;11.93;8.18;;;14.60;99.90;;;;;;5030730;28;20065;-66
2022/07/04 06:04:50;;;;;;;13.20;8.32;;;14.60;99.90;;;;;;5031445;28;20128;-64
2022/07/04 06:07:16;;;;;;;14.18;8.15;;;14.70;99.90;;;;;;5024060;28;20049;-64
2022/07/04 06:09:42;;;;;;;15.48;8.65;;;14.70;99.90;;;;;;5029658;28;20055;-65
2022/07/04 06:12:07;;;;;;;14.68;8.63;;;14.70;99.90;;;;;;5021203;28;20038;-64
2022/07/04 06:14:33;;;;;;;13.70;8.38;;;14.80;99.90;;;;;;5032910;28;20060;-65
2022/07/04 06:16:59;;;;;;;13.52;8.00;;;14.80;99.90;;;;;;5026147;28;20084;-65
2022/07/04 06:19:24;;;;;;;14.63;8.60;;;14.90;99.90;;;;;;5024179;28;20042;-66
2022/07/04 06:21:50;;;;;;;14.45;8.05;;;15.00;99.90;;;;;;5030847;28;20104;-64
2022/07/04 06:24:16;;;;;;;16.52;8.88;;;15.10;99.90;;;;;;5033168;28;20047;-65
2022/07/04 06:26:41;;;;;;;14.95;7.95;;;15.20;99.90;;;;;;5025751;28;20408;-65
2022/07/04 06:29:07;;;;;;;13.20;7.90;;;15.30;99.90;;;;;;5024199;28;20044;-65
2022/07/04 06:31:33;;;;;;;13.10;8.40;;;15.40;99.90;;;;;;5024465;28;20511;-65
2022/07/04 06:36:45;;;;;;;13.23;7.47;;;15.50;99.90;;;;;;5021525;28;20054;-67
2022/07/04 06:39:10;;;;;;;10.00;7.30;;;15.50;99.90;;;;;;5026987;28;20404;-64
2022/07/04 06:41:37;;;;;;;11.10;7.05;;;15.60;99.90;;;;;;5026194;28;20046;-65
2022/07/04 06:44:03;;;;;;;14.73;7.38;;;15.70;99.90;;;;;;5034434;28;20037;-65
2022/07/04 06:46:28;;;;;;;13.18;7.00;;;15.70;99.90;;;;;;5019999;28;20037;-65
2022/07/04 06:48:54;;;;;;;12.93;6.55;;;15.80;99.90;;;;;;5017309;28;20038;-65
2022/07/04 06:51:20;;;;;;;11.70;7.05;;;15.80;99.90;;;;;;5020191;28;20472;-65
2022/07/04 06:53:45;;;;;;;12.35;7.22;;;15.80;99.90;;;;;;5031824;28;20563;-66
2022/07/04 06:56:12;;;;;;;14.77;7.18;;;15.80;99.90;;;;;;5025922;28;20411;-65
2022/07/04 06:58:38;;;;;;;15.73;7.45;;;15.80;99.90;;;;;;5018548;28;20045;-65
2022/07/04 07:01:04;;;;;;;12.90;6.65;;;15.90;99.90;;;;;;5023274;28;20377;-65
2022/07/04 07:03:30;;;;;;;14.32;6.90;;;15.90;99.90;;;;;;5029089;28;20458;-67
2022/07/04 07:05:56;;;;;;;15.57;6.68;;;16.00;99.90;;;;;;5030624;28;21406;-65
2022/07/04 07:08:22;;;;;;;12.60;6.22;;;16.00;99.90;;;;;;5019093;28;20041;-67
2022/07/04 07:10:48;;;;;;;15.45;6.55;;;16.10;99.90;;;;;;5025049;28;20041;-65
2022/07/04 07:13:14;;;;;;;11.85;7.00;;;16.20;99.90;;;;;;5016782;28;20452;-66
2022/07/04 07:15:40;;;;;;;12.55;7.25;;;16.20;99.90;;;;;;5029469;28;20045;-64
2022/07/04 07:18:06;;;;;;;16.98;6.95;;;16.30;99.90;;;;;;5027940;28;20045;-65
2022/07/04 07:20:31;;;;;;;16.17;6.70;;;16.40;99.90;;;;;;5022649;28;20092;-65
2022/07/04 07:22:57;;;;;;;15.13;6.85;;;16.50;99.90;;;;;;5012982;28;20547;-65
2022/07/04 07:25:23;;;;;;;18.73;7.13;;;16.60;99.90;;;;;;5029231;28;20456;-65
2022/07/04 07:27:48;;;;;;;14.75;7.22;;;16.70;99.90;;;;;;5031381;28;20488;-66
2022/07/04 07:30:14;;;;;;;15.75;6.60;;;16.70;99.90;;;;;;5025964;28;20485;-64
2022/07/04 07:32:40;;;;;;;12.75;6.43;;;16.80;99.90;;;;;;5021849;28;20061;-65
2022/07/04 07:35:06;;;;;;;12.00;5.80;;;16.90;99.90;;;;;;5031765;28;20033;-65
2022/07/04 07:37:31;;;;;;;14.85;6.43;;;16.90;99.90;;;;;;5034787;28;20041;-65
2022/07/04 07:39:57;;;;;;;12.63;6.30;;;17.10;99.90;;;;;;5022893;28;20519;-65
2022/07/04 07:42:24;;;;;;;16.13;6.05;;;17.10;99.90;;;;;;5019679;28;20091;-65
2022/07/04 07:44:50;;;;;;;15.63;5.43;;;17.20;99.90;;;;;;5029917;28;20049;-65
2022/07/04 07:47:15;;;;;;;13.30;5.63;;;17.30;99.90;;;;;;5029489;28;20411;-65
2022/07/04 07:49:42;;;;;;;13.40;5.78;;;17.40;99.90;;;;;;5021039;28;20038;-65
2022/07/04 07:52:08;;;;;;;12.30;5.30;;;17.50;99.90;;;;;;5027746;28;20025;-65
2022/07/04 07:54:33;;;;;;;14.48;5.32;;;17.50;99.90;;;;;;5016786;28;20042;-65
2022/07/04 07:56:59;;;;;;;11.88;4.93;;;17.50;99.90;;;;;;5019913;28;20040;-66
2022/07/04 07:59:25;;;;;;;11.77;5.10;;;17.60;99.90;;;;;;5021611;28;20030;-64
2022/07/04 08:01:50;;;;;;;12.70;4.97;;;17.60;99.90;;;;;;5020297;28;20076;-64
2022/07/04 08:04:34;;;;;;;12.25;5.10;;;17.70;99.90;;;;;;5023463;28;20034;-65
2022/07/04 08:07:04;;;;;;;13.27;4.97;;;17.70;99.90;;;;;;5019646;28;20029;-66
2022/07/04 08:09:30;;;;;;;16.42;4.28;;;17.80;99.90;;;;;;5022261;28;20085;-65
2022/07/04 08:11:55;;;;;;;10.27;3.47;;;17.90;99.90;;;;;;5021621;28;20053;-66
2022/07/04 08:14:21;;;;;;;13.68;4.70;;;18.00;99.90;;;;;;5040871;28;20046;-67
2022/07/04 08:16:47;;;;;;;11.18;4.90;;;18.10;99.90;;;;;;5037440;28;20493;-65
2022/07/04 08:19:13;;;;;;;10.93;4.30;;;18.20;99.90;;;;;;5022830;28;20476;-65
2022/07/04 08:21:38;;;;;;;10.82;3.80;;;18.30;99.90;;;;;;5022124;28;20041;-65
2022/07/04 08:24:04;;;;;;;9.95;3.80;;;18.30;99.90;;;;;;5024694;28;20071;-66
2022/07/04 08:26:30;;;;;;;9.30;4.18;;;18.30;99.90;;;;;;5028395;28;20484;-67
2022/07/04 08:28:57;;;;;;;9.55;3.80;;;18.40;99.90;;;;;;5029575;28;20041;-65
2022/07/04 08:31:24;;;;;;;12.20;3.88;;;18.60;99.90;;;;;;5029053;28;20056;-65
2022/07/04 08:33:50;;;;;;;10.75;4.07;;;18.80;99.90;;;;;;5029848;28;20052;-68
2022/07/04 08:36:16;;;;;;;10.98;3.78;;;19.00;99.90;;;;;;5022829;28;20046;-66
2022/07/04 08:38:42;;;;;;;11.30;3.33;;;19.20;99.90;;;;;;5031286;28;20060;-66
2022/07/04 08:41:08;;;;;;;11.45;3.90;;;19.50;99.90;;;;;;5012174;28;20084;-65
2022/07/04 08:43:35;;;;;;;10.32;3.60;;;19.70;99.90;;;;;;5014911;28;20041;-65
2022/07/04 08:46:03;;;;;;;4.78;3.00;;;19.90;99.90;;;;;;5013800;28;20084;-66
2022/07/04 08:48:31;;;;;;;8.55;3.10;;;20.00;99.90;;;;;;5033679;28;20385;-65
2022/07/04 08:51:03;;;;;;;5.93;2.40;;;20.00;99.90;;;;;;5018753;28;20041;-66
2022/07/04 08:53:33;;;;;;;9.65;2.80;;;20.10;99.90;;;;;;5036216;28;20079;-65
2022/07/04 08:58:45;;;;;;;5.68;2.17;;;20.30;99.90;;;;;;5028159;28;20079;-66
2022/07/04 09:01:14;;;;;;;6.65;2.40;;;20.40;99.90;;;;;;5025829;28;20046;-66
2022/07/04 09:03:44;;;;;;;6.35;2.60;;;20.60;99.90;;;;;;5020748;28;20373;-66
2022/07/04 09:06:11;;;;;;;8.30;2.50;;;20.80;99.90;;;;;;5021402;28;20112;-66
2022/07/04 09:08:38;;;;;;;9.25;2.50;;;20.80;99.90;;;;;;5025418;28;20049;-65
2022/07/04 09:11:04;;;;;;;5.13;2.05;;;21.00;99.90;;;;;;5012030;28;20412;-66
2022/07/04 09:13:31;;;;;;;4.25;2.10;;;21.20;99.90;;;;;;5017209;28;20084;-66
2022/07/04 09:15:57;;;;;;;7.65;2.33;;;21.30;99.90;;;;;;5036156;28;20037;-66
2022/07/04 09:18:33;;;;;;;7.15;2.30;;;21.40;99.90;;;;;;5012031;28;20133;-66
2022/07/04 09:21:06;;;;;;;7.05;2.20;;;21.50;99.90;;;;;;5015850;28;20041;-65
2022/07/04 09:23:38;;;;;;;4.95;2.10;;;21.30;99.90;;;;;;5029933;28;20546;-66
2022/07/04 09:26:20;;;;;;;4.07;1.90;;;21.00;99.90;;;;;;5018736;28;20042;-66
2022/07/04 09:28:59;;;;;;;7.38;2.30;;;20.90;99.90;;;;;;5023267;28;20515;-66
2022/07/04 09:31:26;;;;;;;7.38;2.20;;;21.00;99.90;;;;;;5017999;28;20042;-67
2022/07/04 09:33:58;;;;;;;4.38;1.90;;;21.30;99.90;;;;;;5023367;28;20092;-66
2022/07/04 09:36:26;;;;;;;6.10;2.03;;;21.30;99.90;;;;;;5023474;28;20046;-67
2022/07/04 09:39:15;;;;;;;3.88;2.05;;;21.20;99.90;;;;;;5027459;28;20455;-66
2022/07/04 09:42:00;;;;;;;5.40;1.90;;;21.00;99.90;;;;;;5030397;28;20044;-66
2022/07/04 09:44:28;;;;;;;5.35;1.85;;;20.80;99.90;;;;;;5032789;28;20113;-66
2022/07/04 09:46:55;;;;;;;6.63;2.00;;;20.60;99.90;;;;;;5033097;28;20365;-66
2022/07/04 09:49:21;;;;;;;5.38;1.92;;;20.50;99.90;;;;;;5021054;28;20081;-66
2022/07/04 09:51:51;;;;;;;4.10;1.80;;;20.50;99.90;;;;;;5028102;28;20048;-66
2022/07/04 09:54:19;;;;;;;3.20;1.80;;;20.70;99.90;;;;;;5026631;28;20041;-66
2022/07/04 09:56:56;;;;;;;5.47;1.92;;;20.80;99.90;;;;;;5030884;28;20037;-66
2022/07/04 09:59:23;;;;;;;5.38;2.10;;;21.10;99.90;;;;;;5031759;28;20052;-66
2022/07/04 10:01:49;;;;;;;4.97;2.10;;;21.20;99.90;;;;;;5027427;28;20040;-67
2022/07/04 10:04:15;;;;;;;5.18;1.88;;;21.30;99.90;;;;;;5024134;28;20088;-66
2022/07/04 10:06:42;;;;;;;7.05;2.63;;;21.40;99.90;;;;;;5024202;28;20042;-66
2022/07/04 10:09:12;;;;;;;4.50;1.60;;;21.60;99.90;;;;;;5031864;28;20045;-67
2022/07/04 10:11:39;;;;;;;3.40;1.48;;;21.80;98.70;;;;;;5014336;28;20396;-66
2022/07/04 10:14:10;;;;;;;4.68;1.40;;;22.00;98.90;;;;;;5029898;28;20041;-66
2022/07/04 10:16:36;;;;;;;3.20;1.50;;;22.20;98.30;;;;;;5025252;28;20433;-66
2022/07/04 10:19:03;;;;;;;1.63;1.20;;;22.30;98.00;;;;;;5019997;28;20087;-67
2022/07/04 10:21:29;;;;;;;4.72;1.60;;;22.50;98.00;;;;;;5023614;28;20049;-66
2022/07/04 10:23:54;;;;;;;4.15;1.75;;;22.70;97.50;;;;;;5021688;28;20045;-67
2022/07/04 10:26:22;;;;;;;6.32;1.75;;;22.70;97.00;;;;;;5022116;28;20052;-67
2022/07/04 10:28:51;;;;;;;2.47;1.40;;;22.80;97.30;;;;;;5028537;28;20042;-66
2022/07/04 10:31:20;;;;;;;2.90;1.30;;;23.00;96.80;;;;;;5022640;28;20034;-67
2022/07/04 10:33:46;;;;;;;4.00;1.20;;;23.20;95.20;;;;;;5030989;28;20167;-66
2022/07/04 10:36:20;;;;;;;3.00;1.30;;;23.30;94.30;;;;;;5027422;28;20116;-66
2022/07/04 10:38:54;;;;;;;2.72;1.20;;;23.50;92.00;;;;;;5033537;28;20041;-67
2022/07/04 10:41:22;;;;;;;3.83;1.15;;;23.50;91.30;;;;;;5020577;28;20092;-67
2022/07/04 10:43:48;;;;;;;2.33;1.08;;;23.50;90.40;;;;;;5024401;28;20091;-66
2022/07/04 10:46:18;;;;;;;5.15;1.50;;;23.40;90.40;;;;;;5029248;28;20033;-67
2022/07/04 10:49:01;;;;;;;2.78;1.30;;;23.50;90.20;;;;;;5012161;28;20042;-67
2022/07/04 10:51:41;;;;;;;2.58;1.25;;;23.60;90.20;;;;;;5028930;28;20396;-66
2022/07/04 10:54:31;;;;;;;1.65;1.30;;;23.70;89.80;;;;;;5021112;28;20437;-67
2022/07/04 10:57:08;;;;;;;5.05;1.92;;;23.70;87.00;;;;;;5028830;28;20036;-67
2022/07/04 10:59:33;;;;;;;2.58;1.60;;;23.80;90.00;;;;;;5033849;28;20042;-66
2022/07/04 11:02:11;;;;;;;4.35;1.55;;;23.80;88.10;;;;;;5032095;28;20557;-67
2022/07/04 11:04:55;;;;;;;2.47;1.60;;;23.80;88.40;;;;;;5022315;28;20088;-66
2022/07/04 11:07:37;;;;;;;2.65;1.40;;;23.60;88.20;;;;;;5015281;28;20121;-66
2022/07/04 11:12:55;;;;;;;3.20;2.10;;;23.30;82.60;;;;;;5027224;28;20099;-66
2022/07/04 11:15:24;;;;;;;3.13;1.30;;;23.10;84.50;;;;;;5025487;28;20072;-66
2022/07/04 11:17:51;;;;;;;4.47;1.50;;;23.00;84.70;;;;;;5024390;28;20033;-67
2022/07/04 11:20:18;;;;;;;1.63;1.25;;;23.00;87.00;;;;;;5019944;28;20071;-66
2022/07/04 11:22:43;;;;;;;1.95;1.40;;;23.10;87.00;;;;;;5028076;28;20492;-67
2022/07/04 11:25:11;;;;;;;3.17;1.60;;;23.20;86.60;;;;;;5021522;28;20037;-66
2022/07/04 11:27:40;;;;;;;3.92;1.50;;;23.40;86.40;;;;;;5022380;28;20049;-66
2022/07/04 11:30:08;;;;;;;3.22;1.67;;;23.60;87.10;;;;;;5022768;28;20029;-67
2022/07/04 11:32:35;;;;;;;2.75;1.60;;;23.70;85.40;;;;;;5019975;28;20395;-66
2022/07/04 11:35:03;;;;;;;3.22;1.38;;;23.80;84.50;;;;;;5027595;28;20441;-66
2022/07/04 11:37:29;;;;;;;9.85;2.22;;;24.10;82.60;;;;;;5020974;28;20049;-67
2022/07/04 11:45:24;;;;;;;3.42;1.63;;;24.20;84.30;;;;;;5033365;28;20492;-66
2022/07/04 11:47:50;;;;;;;7.65;1.67;;;24.40;84.90;;;;;;5027710;28;20090;-66
2022/07/04 11:50:18;;;;;;;6.32;2.03;;;24.60;83.80;;;;;;5023776;28;20045;-66
2022/07/04 11:52:51;;;;;;;2.72;1.55;;;24.70;83.00;;;;;;5025954;28;20037;-66
2022/07/04 11:55:17;;;;;;;4.13;1.65;;;24.80;83.30;;;;;;5020797;28;20046;-66
2022/07/04 11:57:48;;;;;;;2.38;1.40;;;25.10;83.70;;;;;;5025330;28;20029;-67
2022/07/04 12:00:19;;;;;;;3.22;1.50;;;25.20;82.00;;;;;;5019593;28;20260;-67
2022/07/04 12:02:47;;;;;;;2.85;1.45;;;25.30;81.50;;;;;;5024903;28;20056;-66
2022/07/04 12:05:14;;;;;;;5.25;1.65;;;25.00;81.30;;;;;;5027562;28;20052;-67
2022/07/04 12:07:42;;;;;;;4.68;1.50;;;24.90;78.90;;;;;;5024948;28;20132;-66
2022/07/04 12:10:12;;;;;;;4.30;1.60;;;24.70;79.30;;;;;;5025088;28;20047;-66
2022/07/04 12:12:54;;;;;;;4.25;1.58;;;24.60;80.00;;;;;;5024302;28;20131;-66
2022/07/04 12:15:21;;;;;;;3.80;1.60;;;24.50;76.90;;;;;;5028299;28;20042;-66
2022/07/04 12:17:55;;;;;;;3.40;1.70;;;24.20;77.50;;;;;;5025239;28;20038;-66
2022/07/04 12:20:24;;;;;;;3.30;1.50;;;24.00;77.90;;;;;;5025996;28;20029;-66
2022/07/04 12:23:00;;;;;;;4.40;1.50;;;24.00;78.90;;;;;;5028099;28;20045;-66
2022/07/04 12:25:36;;;;;;;3.00;1.40;;;24.00;78.90;;;;;;5022767;28;20060;-66
2022/07/04 12:28:14;;;;;;;3.30;1.35;;;24.20;80.10;;;;;;5017988;28;20046;-65
2022/07/04 12:30:54;;;;;;;1.58;1.27;;;24.40;80.80;;;;;;5024394;28;20052;-66
2022/07/04 12:33:21;;;;;;;2.15;1.50;;;24.70;78.60;;;;;;5026551;28;20041;-66
2022/07/04 12:35:49;;;;;;;5.10;1.30;;;24.80;78.20;;;;;;5027525;28;20037;-66
2022/07/04 12:38:22;;;;;;;4.72;1.30;;;24.80;75.90;;;;;;5029701;28;20515;-66
2022/07/04 12:41:08;;;;;;;3.35;1.40;;;24.60;74.10;;;;;;5025337;28;20037;-66
2022/07/04 12:43:43;;;;;;;3.70;1.30;;;24.40;73.50;;;;;;5028942;28;20049;-66
2022/07/04 12:46:25;;;;;;;3.42;1.30;;;24.40;74.30;;;;;;5021161;28;20042;-66
2022/07/04 12:48:52;;;;;;;3.05;1.40;;;24.40;74.90;;;;;;5021040;28;20106;-66
2022/07/04 12:51:20;;;;;;;4.18;1.30;;;24.50;75.40;;;;;;5026795;28;20083;-66
2022/07/04 12:53:49;;;;;;;3.72;1.60;;;24.60;73.10;;;;;;5027215;28;20052;-66
2022/07/04 12:56:29;;;;;;;2.47;1.40;;;24.60;72.40;;;;;;5015991;28;20045;-65
2022/07/04 12:58:55;;;;;;;11.23;1.58;;;24.50;72.10;;;;;;5021858;28;20069;-66
2022/07/04 13:01:21;;;;;;;2.88;1.35;;;24.40;73.10;;;;;;5018464;28;20077;-66